sensor_id;sensor_type;location;lat;lon;timestamp;P1;durP1;ratioP1;P2;durP2;ratioP2
12359;SDS011;6244;51.460;7.090;2022-09-03T00:01:55;1116.03;;;762.78;;
12359;SDS011;6244;51.460;7.090;2022-09-03T00:06:56;1120.50;;;765.38;;
12359;SDS011;6244;51.460;7.090;2022-09-03T00:11:57;1128.50;;;763.53;;
12359;SDS011;6244;51.460;7.090;2022-09-03T00:17:04;1123.28;;;780.95;;
12359;SDS011;6244;51.460;7.090;2022-09-03T00:22:07;1122.50;;;780.00;;
12359;SDS011;6244;51.460;7.090;2022-09-03T00:27:11;1121.28;;;786.63;;
12359;SDS011;6244;51.460;7.090;2022-09-03T00:32:13;1125.27;;;793.43;;
12359;SDS011;6244;51.460;7.090;2022-09-03T00:37:14;1123.88;;;790.45;;
12359;SDS011;6244;51.460;7.090;2022-09-03T00:42:19;1122.80;;;797.78;;
12359;SDS011;6244;51.460;7.090;2022-09-03T00:47:29;1126.13;;;768.72;;
12359;SDS011;6244;51.460;7.090;2022-09-03T00:52:37;1123.20;;;781.25;;
12359;SDS011;6244;51.460;7.090;2022-09-03T00:57:44;1126.05;;;763.50;;
12359;SDS011;6244;51.460;7.090;2022-09-03T01:02:58;1125.68;;;754.03;;
12359;SDS011;6244;51.460;7.090;2022-09-03T01:08:05;1124.25;;;747.80;;
12359;SDS011;6244;51.460;7.090;2022-09-03T01:13:15;1124.93;;;740.47;;
12359;SDS011;6244;51.460;7.090;2022-09-03T01:18:19;1122.28;;;736.58;;
12359;SDS011;6244;51.460;7.090;2022-09-03T01:29:05;1122.50;;;738.20;;
12359;SDS011;6244;51.460;7.090;2022-09-03T01:34:14;1120.63;;;737.03;;
12359;SDS011;6244;51.460;7.090;2022-09-03T01:39:22;1122.07;;;740.13;;
12359;SDS011;6244;51.460;7.090;2022-09-03T01:44:30;1122.80;;;741.85;;
12359;SDS011;6244;51.460;7.090;2022-09-03T01:49:39;1119.60;;;734.67;;
12359;SDS011;6244;51.460;7.090;2022-09-03T01:54:44;1123.18;;;744.88;;
12359;SDS011;6244;51.460;7.090;2022-09-03T01:59:51;1120.68;;;741.15;;
12359;SDS011;6244;51.460;7.090;2022-09-03T02:04:55;1119.03;;;737.72;;
12359;SDS011;6244;51.460;7.090;2022-09-03T02:09:54;1121.03;;;739.08;;
12359;SDS011;6244;51.460;7.090;2022-09-03T02:14:52;1118.75;;;734.92;;
12359;SDS011;6244;51.460;7.090;2022-09-03T02:19:50;1117.33;;;732.90;;
12359;SDS011;6244;51.460;7.090;2022-09-03T02:24:47;1117.20;;;729.80;;
12359;SDS011;6244;51.460;7.090;2022-09-03T02:29:44;1118.57;;;735.67;;
12359;SDS011;6244;51.460;7.090;2022-09-03T02:34:44;1114.50;;;753.03;;
12359;SDS011;6244;51.460;7.090;2022-09-03T02:39:41;1120.50;;;740.53;;
12359;SDS011;6244;51.460;7.090;2022-09-03T02:44:38;1114.70;;;747.97;;
12359;SDS011;6244;51.460;7.090;2022-09-03T02:49:39;1119.93;;;741.92;;
12359;SDS011;6244;51.460;7.090;2022-09-03T02:54:38;1112.25;;;746.60;;
12359;SDS011;6244;51.460;7.090;2022-09-03T02:59:35;1128.28;;;760.25;;
12359;SDS011;6244;51.460;7.090;2022-09-03T03:04:32;1122.85;;;745.50;;
12359;SDS011;6244;51.460;7.090;2022-09-03T03:09:29;1125.55;;;743.00;;
12359;SDS011;6244;51.460;7.090;2022-09-03T03:14:26;1115.25;;;737.38;;
12359;SDS011;6244;51.460;7.090;2022-09-03T03:19:23;1121.45;;;746.13;;
12359;SDS011;6244;51.460;7.090;2022-09-03T03:24:20;1123.05;;;736.72;;
12359;SDS011;6244;51.460;7.090;2022-09-03T03:29:16;1120.50;;;731.97;;
12359;SDS011;6244;51.460;7.090;2022-09-03T03:34:14;1122.20;;;732.60;;
12359;SDS011;6244;51.460;7.090;2022-09-03T03:39:11;1126.87;;;738.97;;
12359;SDS011;6244;51.460;7.090;2022-09-03T03:44:07;1127.20;;;738.42;;
12359;SDS011;6244;51.460;7.090;2022-09-03T03:49:04;1124.68;;;730.78;;
12359;SDS011;6244;51.460;7.090;2022-09-03T03:54:03;1120.80;;;726.72;;
12359;SDS011;6244;51.460;7.090;2022-09-03T03:59:00;1115.45;;;709.08;;
12359;SDS011;6244;51.460;7.090;2022-09-03T04:03:57;1116.05;;;720.08;;
12359;SDS011;6244;51.460;7.090;2022-09-03T04:08:55;1117.35;;;725.08;;
12359;SDS011;6244;51.460;7.090;2022-09-03T04:13:53;1118.07;;;719.83;;
12359;SDS011;6244;51.460;7.090;2022-09-03T04:18:50;1120.45;;;725.47;;
12359;SDS011;6244;51.460;7.090;2022-09-03T04:23:48;1119.97;;;712.63;;
12359;SDS011;6244;51.460;7.090;2022-09-03T04:28:45;1123.30;;;715.77;;
12359;SDS011;6244;51.460;7.090;2022-09-03T04:33:43;1124.13;;;715.40;;
12359;SDS011;6244;51.460;7.090;2022-09-03T04:38:40;1123.82;;;723.38;;
12359;SDS011;6244;51.460;7.090;2022-09-03T04:43:38;1118.97;;;703.92;;
12359;SDS011;6244;51.460;7.090;2022-09-03T04:48:36;1119.00;;;699.13;;
12359;SDS011;6244;51.460;7.090;2022-09-03T04:53:35;1124.13;;;709.45;;
12359;SDS011;6244;51.460;7.090;2022-09-03T04:58:32;1121.57;;;705.42;;
12359;SDS011;6244;51.460;7.090;2022-09-03T05:03:29;1122.63;;;707.33;;
12359;SDS011;6244;51.460;7.090;2022-09-03T05:08:25;1123.55;;;703.75;;
12359;SDS011;6244;51.460;7.090;2022-09-03T05:13:23;1122.30;;;702.03;;
12359;SDS011;6244;51.460;7.090;2022-09-03T05:18:20;1125.00;;;704.40;;
12359;SDS011;6244;51.460;7.090;2022-09-03T05:23:16;1120.78;;;706.47;;
12359;SDS011;6244;51.460;7.090;2022-09-03T05:28:13;1124.97;;;705.88;;
12359;SDS011;6244;51.460;7.090;2022-09-03T05:33:11;1124.13;;;696.83;;
12359;SDS011;6244;51.460;7.090;2022-09-03T05:38:09;1126.90;;;708.33;;
12359;SDS011;6244;51.460;7.090;2022-09-03T05:43:06;1136.67;;;709.60;;
12359;SDS011;6244;51.460;7.090;2022-09-03T05:48:02;1132.80;;;710.47;;
12359;SDS011;6244;51.460;7.090;2022-09-03T05:53:00;1128.43;;;704.80;;
12359;SDS011;6244;51.460;7.090;2022-09-03T05:57:56;1135.90;;;711.75;;
12359;SDS011;6244;51.460;7.090;2022-09-03T06:02:53;1133.75;;;721.63;;
12359;SDS011;6244;51.460;7.090;2022-09-03T06:07:50;1126.55;;;718.50;;
12359;SDS011;6244;51.460;7.090;2022-09-03T06:12:51;1135.95;;;719.05;;
12359;SDS011;6244;51.460;7.090;2022-09-03T06:17:47;1126.07;;;711.40;;
12359;SDS011;6244;51.460;7.090;2022-09-03T06:22:47;1158.28;;;702.38;;
12359;SDS011;6244;51.460;7.090;2022-09-03T06:27:45;1141.45;;;707.17;;
12359;SDS011;6244;51.460;7.090;2022-09-03T06:32:44;1149.55;;;707.20;;
12359;SDS011;6244;51.460;7.090;2022-09-03T06:37:41;1122.73;;;708.87;;
12359;SDS011;6244;51.460;7.090;2022-09-03T06:42:38;1120.22;;;700.92;;
12359;SDS011;6244;51.460;7.090;2022-09-03T06:47:35;1127.65;;;731.22;;
12359;SDS011;6244;51.460;7.090;2022-09-03T06:52:33;1124.50;;;735.80;;
12359;SDS011;6244;51.460;7.090;2022-09-03T06:57:29;1155.00;;;732.17;;
12359;SDS011;6244;51.460;7.090;2022-09-03T07:02:26;1142.43;;;758.70;;
12359;SDS011;6244;51.460;7.090;2022-09-03T07:07:23;1123.32;;;740.08;;
12359;SDS011;6244;51.460;7.090;2022-09-03T07:12:21;1119.57;;;735.20;;
12359;SDS011;6244;51.460;7.090;2022-09-03T07:17:17;1120.53;;;743.40;;
12359;SDS011;6244;51.460;7.090;2022-09-03T07:22:14;1122.32;;;741.78;;
12359;SDS011;6244;51.460;7.090;2022-09-03T07:27:10;1127.47;;;757.73;;
12359;SDS011;6244;51.460;7.090;2022-09-03T07:32:08;1126.75;;;777.13;;
12359;SDS011;6244;51.460;7.090;2022-09-03T07:37:05;1126.68;;;787.38;;
12359;SDS011;6244;51.460;7.090;2022-09-03T07:42:01;1121.28;;;769.28;;
12359;SDS011;6244;51.460;7.090;2022-09-03T07:46:58;1124.53;;;798.63;;
12359;SDS011;6244;51.460;7.090;2022-09-03T07:51:56;1127.03;;;806.17;;
12359;SDS011;6244;51.460;7.090;2022-09-03T07:56:52;1194.82;;;800.53;;
12359;SDS011;6244;51.460;7.090;2022-09-03T08:01:49;1129.50;;;801.85;;
12359;SDS011;6244;51.460;7.090;2022-09-03T08:06:46;1125.35;;;822.00;;
12359;SDS011;6244;51.460;7.090;2022-09-03T08:11:45;1130.07;;;825.58;;
12359;SDS011;6244;51.460;7.090;2022-09-03T08:16:42;1123.80;;;857.67;;
12359;SDS011;6244;51.460;7.090;2022-09-03T08:21:41;1116.88;;;878.55;;
12359;SDS011;6244;51.460;7.090;2022-09-03T08:26:39;1109.47;;;874.55;;
12359;SDS011;6244;51.460;7.090;2022-09-03T08:31:38;1118.05;;;900.38;;
12359;SDS011;6244;51.460;7.090;2022-09-03T08:36:35;1092.73;;;925.23;;
12359;SDS011;6244;51.460;7.090;2022-09-03T08:41:44;1089.07;;;914.10;;
12359;SDS011;6244;51.460;7.090;2022-09-03T08:46:58;1086.13;;;960.17;;
12359;SDS011;6244;51.460;7.090;2022-09-03T08:51:57;1081.07;;;959.40;;
12359;SDS011;6244;51.460;7.090;2022-09-03T08:56:59;1079.80;;;959.93;;
12359;SDS011;6244;51.460;7.090;2022-09-03T09:02:00;1079.32;;;918.65;;
12359;SDS011;6244;51.460;7.090;2022-09-03T09:07:10;1078.32;;;908.35;;
12359;SDS011;6244;51.460;7.090;2022-09-03T09:12:13;1076.88;;;906.53;;
12359;SDS011;6244;51.460;7.090;2022-09-03T09:17:22;1073.15;;;899.03;;
12359;SDS011;6244;51.460;7.090;2022-09-03T09:22:28;1075.35;;;916.55;;
12359;SDS011;6244;51.460;7.090;2022-09-03T09:27:29;1077.30;;;922.67;;
12359;SDS011;6244;51.460;7.090;2022-09-03T09:32:28;1077.40;;;921.43;;
12359;SDS011;6244;51.460;7.090;2022-09-03T09:37:26;1075.25;;;923.42;;
12359;SDS011;6244;51.460;7.090;2022-09-03T09:42:23;1086.97;;;925.55;;
12359;SDS011;6244;51.460;7.090;2022-09-03T09:47:21;1089.23;;;967.57;;
12359;SDS011;6244;51.460;7.090;2022-09-03T09:52:23;1074.63;;;955.33;;
12359;SDS011;6244;51.460;7.090;2022-09-03T09:57:23;1079.25;;;953.25;;
12359;SDS011;6244;51.460;7.090;2022-09-03T10:02:22;1087.13;;;967.57;;
12359;SDS011;6244;51.460;7.090;2022-09-03T10:07:24;1084.68;;;930.03;;
12359;SDS011;6244;51.460;7.090;2022-09-03T10:12:27;1095.45;;;943.15;;
12359;SDS011;6244;51.460;7.090;2022-09-03T10:17:33;1094.33;;;908.73;;
12359;SDS011;6244;51.460;7.090;2022-09-03T10:22:38;1100.55;;;916.35;;
12359;SDS011;6244;51.460;7.090;2022-09-03T10:27:40;1096.05;;;905.85;;
12359;SDS011;6244;51.460;7.090;2022-09-03T10:32:39;1093.38;;;942.15;;
12359;SDS011;6244;51.460;7.090;2022-09-03T10:37:46;1083.25;;;944.22;;
12359;SDS011;6244;51.460;7.090;2022-09-03T10:42:51;1084.65;;;963.55;;
12359;SDS011;6244;51.460;7.090;2022-09-03T10:48:05;1100.28;;;980.88;;
12359;SDS011;6244;51.460;7.090;2022-09-03T10:53:33;1091.63;;;971.97;;
12359;SDS011;6244;51.460;7.090;2022-09-03T10:58:44;1074.27;;;956.27;;
12359;SDS011;6244;51.460;7.090;2022-09-03T11:03:52;1087.55;;;969.22;;
12359;SDS011;6244;51.460;7.090;2022-09-03T11:09:04;1059.25;;;939.38;;
12359;SDS011;6244;51.460;7.090;2022-09-03T11:14:08;1076.23;;;957.73;;
12359;SDS011;6244;51.460;7.090;2022-09-03T11:19:10;1073.63;;;953.90;;
12359;SDS011;6244;51.460;7.090;2022-09-03T11:24:12;1080.70;;;945.85;;
12359;SDS011;6244;51.460;7.090;2022-09-03T11:29:14;1083.05;;;928.88;;
12359;SDS011;6244;51.460;7.090;2022-09-03T11:34:25;1079.80;;;960.13;;
12359;SDS011;6244;51.460;7.090;2022-09-03T11:39:33;1078.22;;;948.00;;
12359;SDS011;6244;51.460;7.090;2022-09-03T11:44:34;1078.43;;;927.75;;
12359;SDS011;6244;51.460;7.090;2022-09-03T11:49:32;1087.78;;;948.28;;
12359;SDS011;6244;51.460;7.090;2022-09-03T11:54:45;1091.03;;;925.63;;
12359;SDS011;6244;51.460;7.090;2022-09-03T11:59:42;1093.93;;;902.20;;
12359;SDS011;6244;51.460;7.090;2022-09-03T12:04:41;1101.47;;;902.40;;
12359;SDS011;6244;51.460;7.090;2022-09-03T12:10:02;1102.77;;;915.43;;
12359;SDS011;6244;51.460;7.090;2022-09-03T12:15:04;1095.55;;;891.53;;
12359;SDS011;6244;51.460;7.090;2022-09-03T12:20:09;1094.75;;;889.85;;
12359;SDS011;6244;51.460;7.090;2022-09-03T12:25:09;1102.53;;;890.13;;
12359;SDS011;6244;51.460;7.090;2022-09-03T12:30:13;1104.70;;;908.03;;
12359;SDS011;6244;51.460;7.090;2022-09-03T12:35:11;1102.57;;;882.17;;
12359;SDS011;6244;51.460;7.090;2022-09-03T12:40:16;1098.75;;;875.38;;
12359;SDS011;6244;51.460;7.090;2022-09-03T12:45:13;1102.80;;;884.58;;
12359;SDS011;6244;51.460;7.090;2022-09-03T12:50:14;1103.83;;;886.27;;
12359;SDS011;6244;51.460;7.090;2022-09-03T12:55:15;1100.22;;;882.50;;
12359;SDS011;6244;51.460;7.090;2022-09-03T13:00:16;1101.25;;;898.30;;
12359;SDS011;6244;51.460;7.090;2022-09-03T13:05:15;1097.72;;;882.90;;
12359;SDS011;6244;51.460;7.090;2022-09-03T13:10:15;1102.97;;;881.55;;
12359;SDS011;6244;51.460;7.090;2022-09-03T13:15:18;1105.03;;;863.63;;
12359;SDS011;6244;51.460;7.090;2022-09-03T13:20:20;1111.27;;;882.67;;
12359;SDS011;6244;51.460;7.090;2022-09-03T13:25:19;1116.93;;;850.75;;
12359;SDS011;6244;51.460;7.090;2022-09-03T13:30:21;1112.07;;;850.40;;
12359;SDS011;6244;51.460;7.090;2022-09-03T13:35:21;1107.32;;;877.58;;
12359;SDS011;6244;51.460;7.090;2022-09-03T13:40:21;1103.68;;;870.25;;
12359;SDS011;6244;51.460;7.090;2022-09-03T13:45:27;1108.30;;;881.83;;
12359;SDS011;6244;51.460;7.090;2022-09-03T13:50:24;1098.70;;;870.72;;
12359;SDS011;6244;51.460;7.090;2022-09-03T13:55:24;1094.93;;;872.77;;
12359;SDS011;6244;51.460;7.090;2022-09-03T14:00:23;1096.25;;;886.28;;
12359;SDS011;6244;51.460;7.090;2022-09-03T14:05:30;1103.47;;;897.83;;
12359;SDS011;6244;51.460;7.090;2022-09-03T14:10:32;1100.70;;;895.28;;
12359;SDS011;6244;51.460;7.090;2022-09-03T14:15:32;1098.32;;;886.85;;
12359;SDS011;6244;51.460;7.090;2022-09-03T14:20:32;1095.87;;;878.67;;
12359;SDS011;6244;51.460;7.090;2022-09-03T14:25:32;1098.07;;;867.95;;
12359;SDS011;6244;51.460;7.090;2022-09-03T14:30:32;1093.93;;;856.10;;
12359;SDS011;6244;51.460;7.090;2022-09-03T14:35:37;1101.37;;;886.90;;
12359;SDS011;6244;51.460;7.090;2022-09-03T14:40:38;1104.40;;;894.47;;
12359;SDS011;6244;51.460;7.090;2022-09-03T14:51:10;1097.88;;;886.35;;
12359;SDS011;6244;51.460;7.090;2022-09-03T14:56:14;1106.63;;;891.33;;
12359;SDS011;6244;51.460;7.090;2022-09-03T15:01:13;1108.32;;;892.75;;
12359;SDS011;6244;51.460;7.090;2022-09-03T15:06:15;1106.53;;;884.65;;
12359;SDS011;6244;51.460;7.090;2022-09-03T15:11:16;1105.97;;;888.00;;
12359;SDS011;6244;51.460;7.090;2022-09-03T15:16:19;1103.38;;;887.35;;
12359;SDS011;6244;51.460;7.090;2022-09-03T15:21:22;1110.95;;;872.17;;
12359;SDS011;6244;51.460;7.090;2022-09-03T15:26:30;1103.25;;;890.70;;
12359;SDS011;6244;51.460;7.090;2022-09-03T15:31:40;1100.13;;;876.75;;
12359;SDS011;6244;51.460;7.090;2022-09-03T15:36:40;1100.67;;;874.60;;
12359;SDS011;6244;51.460;7.090;2022-09-03T15:41:39;1100.55;;;883.40;;
12359;SDS011;6244;51.460;7.090;2022-09-03T15:51:57;1097.32;;;871.03;;
12359;SDS011;6244;51.460;7.090;2022-09-03T15:56:57;1098.78;;;872.75;;
12359;SDS011;6244;51.460;7.090;2022-09-03T16:01:58;1096.97;;;873.78;;
12359;SDS011;6244;51.460;7.090;2022-09-03T16:07:00;1098.70;;;879.73;;
12359;SDS011;6244;51.460;7.090;2022-09-03T16:12:00;1103.93;;;868.67;;
12359;SDS011;6244;51.460;7.090;2022-09-03T16:17:02;1102.28;;;895.88;;
12359;SDS011;6244;51.460;7.090;2022-09-03T16:22:02;1106.32;;;898.90;;
12359;SDS011;6244;51.460;7.090;2022-09-03T16:27:01;1105.75;;;899.53;;
12359;SDS011;6244;51.460;7.090;2022-09-03T16:32:02;1106.18;;;870.95;;
12359;SDS011;6244;51.460;7.090;2022-09-03T16:37:06;1112.00;;;877.58;;
12359;SDS011;6244;51.460;7.090;2022-09-03T16:42:05;1108.17;;;864.83;;
12359;SDS011;6244;51.460;7.090;2022-09-03T16:47:06;1112.55;;;869.17;;
12359;SDS011;6244;51.460;7.090;2022-09-03T16:52:09;1114.85;;;880.50;;
12359;SDS011;6244;51.460;7.090;2022-09-03T16:57:10;1117.55;;;875.50;;
12359;SDS011;6244;51.460;7.090;2022-09-03T17:02:19;1119.03;;;876.57;;
12359;SDS011;6244;51.460;7.090;2022-09-03T17:07:21;1123.20;;;882.40;;
12359;SDS011;6244;51.460;7.090;2022-09-03T17:12:23;1117.35;;;865.35;;
12359;SDS011;6244;51.460;7.090;2022-09-03T17:17:24;1116.43;;;867.17;;
12359;SDS011;6244;51.460;7.090;2022-09-03T17:22:30;1116.53;;;871.45;;
12359;SDS011;6244;51.460;7.090;2022-09-03T17:27:31;1113.63;;;862.25;;
12359;SDS011;6244;51.460;7.090;2022-09-03T17:32:33;1118.40;;;875.60;;
12359;SDS011;6244;51.460;7.090;2022-09-03T17:37:40;1115.80;;;865.27;;
12359;SDS011;6244;51.460;7.090;2022-09-03T17:42:43;1113.07;;;847.50;;
12359;SDS011;6244;51.460;7.090;2022-09-03T17:48:01;1119.80;;;860.53;;
12359;SDS011;6244;51.460;7.090;2022-09-03T17:53:01;1126.63;;;862.58;;
12359;SDS011;6244;51.460;7.090;2022-09-03T17:58:07;1122.68;;;849.33;;
12359;SDS011;6244;51.460;7.090;2022-09-03T18:03:06;1128.28;;;860.80;;
12359;SDS011;6244;51.460;7.090;2022-09-03T18:08:11;1125.33;;;870.33;;
12359;SDS011;6244;51.460;7.090;2022-09-03T18:13:10;1119.87;;;851.10;;
12359;SDS011;6244;51.460;7.090;2022-09-03T18:18:09;1124.95;;;867.67;;
12359;SDS011;6244;51.460;7.090;2022-09-03T18:23:09;1120.88;;;851.63;;
12359;SDS011;6244;51.460;7.090;2022-09-03T18:28:26;1117.82;;;841.83;;
12359;SDS011;6244;51.460;7.090;2022-09-03T18:33:42;1124.23;;;819.80;;
12359;SDS011;6244;51.460;7.090;2022-09-03T18:39:00;1123.70;;;814.40;;
12359;SDS011;6244;51.460;7.090;2022-09-03T18:44:17;1122.10;;;812.38;;
12359;SDS011;6244;51.460;7.090;2022-09-03T18:49:37;1132.78;;;822.88;;
12359;SDS011;6244;51.460;7.090;2022-09-03T18:55:00;1124.10;;;814.73;;
12359;SDS011;6244;51.460;7.090;2022-09-03T19:00:18;1121.93;;;812.58;;
12359;SDS011;6244;51.460;7.090;2022-09-03T19:05:33;1123.00;;;812.27;;
12359;SDS011;6244;51.460;7.090;2022-09-03T19:10:51;1120.00;;;809.50;;
12359;SDS011;6244;51.460;7.090;2022-09-03T19:16:08;1125.30;;;823.42;;
12359;SDS011;6244;51.460;7.090;2022-09-03T19:21:26;1126.43;;;828.27;;
12359;SDS011;6244;51.460;7.090;2022-09-03T19:26:44;1127.67;;;820.73;;
12359;SDS011;6244;51.460;7.090;2022-09-03T19:32:02;1130.13;;;818.88;;
12359;SDS011;6244;51.460;7.090;2022-09-03T19:37:17;1128.97;;;809.38;;
12359;SDS011;6244;51.460;7.090;2022-09-03T19:42:38;1124.13;;;791.78;;
12359;SDS011;6244;51.460;7.090;2022-09-03T19:47:55;1129.50;;;809.27;;
12359;SDS011;6244;51.460;7.090;2022-09-03T19:53:16;1129.22;;;811.65;;
12359;SDS011;6244;51.460;7.090;2022-09-03T19:58:32;1129.72;;;807.25;;
12359;SDS011;6244;51.460;7.090;2022-09-03T20:03:47;1130.60;;;800.50;;
12359;SDS011;6244;51.460;7.090;2022-09-03T20:09:03;1127.40;;;792.40;;
12359;SDS011;6244;51.460;7.090;2022-09-03T20:14:19;1130.77;;;795.87;;
12359;SDS011;6244;51.460;7.090;2022-09-03T20:19:17;1129.20;;;793.73;;
12359;SDS011;6244;51.460;7.090;2022-09-03T20:24:22;1127.85;;;782.78;;
12359;SDS011;6244;51.460;7.090;2022-09-03T20:29:38;1125.13;;;784.75;;
12359;SDS011;6244;51.460;7.090;2022-09-03T20:34:40;1126.50;;;773.15;;
12359;SDS011;6244;51.460;7.090;2022-09-03T20:39:41;1123.32;;;768.92;;
12359;SDS011;6244;51.460;7.090;2022-09-03T20:44:46;1123.50;;;782.00;;
12359;SDS011;6244;51.460;7.090;2022-09-03T20:49:46;1125.53;;;793.45;;
12359;SDS011;6244;51.460;7.090;2022-09-03T20:54:47;1120.10;;;777.60;;
12359;SDS011;6244;51.460;7.090;2022-09-03T20:59:54;1127.32;;;809.65;;
12359;SDS011;6244;51.460;7.090;2022-09-03T21:04:55;1126.97;;;826.33;;
12359;SDS011;6244;51.460;7.090;2022-09-03T21:09:54;1125.85;;;828.63;;
12359;SDS011;6244;51.460;7.090;2022-09-03T21:14:57;1124.43;;;815.77;;
12359;SDS011;6244;51.460;7.090;2022-09-03T21:20:01;1124.47;;;813.55;;
12359;SDS011;6244;51.460;7.090;2022-09-03T21:24:59;1128.35;;;831.00;;
12359;SDS011;6244;51.460;7.090;2022-09-03T21:30:00;1126.55;;;823.80;;
12359;SDS011;6244;51.460;7.090;2022-09-03T21:35:00;1126.93;;;832.28;;
12359;SDS011;6244;51.460;7.090;2022-09-03T21:40:00;1122.68;;;809.13;;
12359;SDS011;6244;51.460;7.090;2022-09-03T21:44:57;1121.47;;;816.13;;
12359;SDS011;6244;51.460;7.090;2022-09-03T21:49:57;1122.30;;;818.38;;
12359;SDS011;6244;51.460;7.090;2022-09-03T21:54:55;1121.55;;;813.25;;
12359;SDS011;6244;51.460;7.090;2022-09-03T22:00:06;1127.45;;;830.22;;
12359;SDS011;6244;51.460;7.090;2022-09-03T22:05:04;1127.00;;;835.42;;
12359;SDS011;6244;51.460;7.090;2022-09-03T22:10:02;1127.87;;;835.53;;
12359;SDS011;6244;51.460;7.090;2022-09-03T22:15:02;1123.93;;;826.77;;
12359;SDS011;6244;51.460;7.090;2022-09-03T22:20:08;1125.32;;;829.08;;
12359;SDS011;6244;51.460;7.090;2022-09-03T22:25:06;1124.57;;;830.67;;
12359;SDS011;6244;51.460;7.090;2022-09-03T22:30:05;1122.35;;;814.72;;
12359;SDS011;6244;51.460;7.090;2022-09-03T22:35:04;1120.63;;;812.05;;
12359;SDS011;6244;51.460;7.090;2022-09-03T22:40:08;1120.15;;;808.88;;
12359;SDS011;6244;51.460;7.090;2022-09-03T22:45:19;1119.93;;;810.92;;
12359;SDS011;6244;51.460;7.090;2022-09-03T22:50:19;1118.32;;;804.97;;
12359;SDS011;6244;51.460;7.090;2022-09-03T22:55:18;1121.43;;;810.47;;
12359;SDS011;6244;51.460;7.090;2022-09-03T23:00:17;1119.97;;;812.17;;
12359;SDS011;6244;51.460;7.090;2022-09-03T23:05:18;1119.03;;;811.37;;
12359;SDS011;6244;51.460;7.090;2022-09-03T23:10:21;1116.20;;;804.00;;
12359;SDS011;6244;51.460;7.090;2022-09-03T23:15:19;1115.63;;;796.28;;
12359;SDS011;6244;51.460;7.090;2022-09-03T23:20:17;1116.07;;;803.10;;
12359;SDS011;6244;51.460;7.090;2022-09-03T23:25:17;1113.22;;;785.85;;
12359;SDS011;6244;51.460;7.090;2022-09-03T23:30:16;1110.43;;;780.15;;
12359;SDS011;6244;51.460;7.090;2022-09-03T23:35:13;1112.38;;;781.88;;
12359;SDS011;6244;51.460;7.090;2022-09-03T23:40:18;1112.30;;;787.13;;
12359;SDS011;6244;51.460;7.090;2022-09-03T23:45:19;1110.38;;;777.30;;
12359;SDS011;6244;51.460;7.090;2022-09-03T23:50:25;1112.47;;;785.37;;
12359;SDS011;6244;51.460;7.090;2022-09-03T23:55:25;1114.43;;;787.03;;
